sensor_id;sensor_type;location;lat;lon;timestamp;pressure;altitude;pressure_sealevel;temperature;humidity
75886;BME280;64561;44.018;10.144;2023-01-20T00:01:42;100536.34;;;4.57;79.33
75886;BME280;64561;44.018;10.144;2023-01-20T00:04:12;100540.88;;;4.65;78.96
75886;BME280;64561;44.018;10.144;2023-01-20T00:06:39;100546.66;;;4.62;79.00
75886;BME280;64561;44.018;10.144;2023-01-20T00:09:13;100536.94;;;4.52;78.41
75886;BME280;64561;44.018;10.144;2023-01-20T00:11:42;100539.59;;;4.35;79.50
75886;BME280;64561;44.018;10.144;2023-01-20T00:14:10;100535.44;;;4.18;79.06
75886;BME280;64561;44.018;10.144;2023-01-20T00:16:37;100537.91;;;4.17;79.69
75886;BME280;64561;44.018;10.144;2023-01-20T00:19:04;100537.91;;;4.17;79.99
75886;BME280;64561;44.018;10.144;2023-01-20T00:21:31;100542.81;;;4.31;80.57
75886;BME280;64561;44.018;10.144;2023-01-20T00:23:58;100545.97;;;4.45;80.53
75886;BME280;64561;44.018;10.144;2023-01-20T00:26:25;100549.94;;;4.59;80.19
75886;BME280;64561;44.018;10.144;2023-01-20T00:28:53;100555.78;;;4.78;79.35
75886;BME280;64561;44.018;10.144;2023-01-20T00:31:25;100552.00;;;4.68;79.77
75886;BME280;64561;44.018;10.144;2023-01-20T00:33:55;100556.34;;;4.71;79.32
75886;BME280;64561;44.018;10.144;2023-01-20T00:36:23;100553.06;;;4.73;79.16
75886;BME280;64561;44.018;10.144;2023-01-20T00:38:50;100557.16;;;4.70;79.48
75886;BME280;64561;44.018;10.144;2023-01-20T00:41:18;100566.38;;;4.69;78.64
75886;BME280;64561;44.018;10.144;2023-01-20T00:43:45;100566.88;;;4.61;78.38
75886;BME280;64561;44.018;10.144;2023-01-20T00:46:12;100574.59;;;4.44;78.43
75886;BME280;64561;44.018;10.144;2023-01-20T00:48:39;100575.78;;;4.33;78.85
75886;BME280;64561;44.018;10.144;2023-01-20T00:51:07;100573.91;;;4.29;79.32
75886;BME280;64561;44.018;10.144;2023-01-20T00:53:35;100576.44;;;4.09;79.36
75886;BME280;64561;44.018;10.144;2023-01-20T00:56:02;100581.56;;;3.93;80.65
75886;BME280;64561;44.018;10.144;2023-01-20T00:58:28;100585.19;;;3.80;80.83
75886;BME280;64561;44.018;10.144;2023-01-20T01:00:55;100579.69;;;3.71;81.78
75886;BME280;64561;44.018;10.144;2023-01-20T01:03:24;100579.03;;;3.57;82.18
75886;BME280;64561;44.018;10.144;2023-01-20T01:05:53;100575.59;;;3.55;82.43
75886;BME280;64561;44.018;10.144;2023-01-20T01:08:20;100572.81;;;3.51;83.15
75886;BME280;64561;44.018;10.144;2023-01-20T01:10:47;100572.97;;;3.54;82.89
75886;BME280;64561;44.018;10.144;2023-01-20T01:13:14;100570.31;;;3.69;82.59
75886;BME280;64561;44.018;10.144;2023-01-20T01:15:47;100572.59;;;3.82;82.01
75886;BME280;64561;44.018;10.144;2023-01-20T01:18:14;100570.50;;;3.91;81.63
75886;BME280;64561;44.018;10.144;2023-01-20T01:20:41;100574.13;;;3.96;81.13
75886;BME280;64561;44.018;10.144;2023-01-20T01:23:11;100580.97;;;3.99;80.63
75886;BME280;64561;44.018;10.144;2023-01-20T01:25:37;100575.19;;;4.01;80.33
75886;BME280;64561;44.018;10.144;2023-01-20T01:28:04;100578.56;;;3.82;79.94
75886;BME280;64561;44.018;10.144;2023-01-20T01:30:31;100576.88;;;3.83;79.96
75886;BME280;64561;44.018;10.144;2023-01-20T01:32:58;100579.13;;;3.77;79.23
75886;BME280;64561;44.018;10.144;2023-01-20T01:35:25;100581.00;;;3.63;79.83
75886;BME280;64561;44.018;10.144;2023-01-20T01:37:52;100572.41;;;3.59;80.19
75886;BME280;64561;44.018;10.144;2023-01-20T01:40:19;100567.03;;;3.53;80.10
75886;BME280;64561;44.018;10.144;2023-01-20T01:42:45;100571.00;;;3.48;79.81
75886;BME280;64561;44.018;10.144;2023-01-20T01:50:24;100554.25;;;3.50;80.64
75886;BME280;64561;44.018;10.144;2023-01-20T01:52:53;100558.00;;;3.40;80.54
75886;BME280;64561;44.018;10.144;2023-01-20T01:55:24;100552.88;;;3.39;80.53
75886;BME280;64561;44.018;10.144;2023-01-20T01:57:53;100553.44;;;3.33;81.11
75886;BME280;64561;44.018;10.144;2023-01-20T02:00:21;100541.19;;;3.07;81.61
75886;BME280;64561;44.018;10.144;2023-01-20T02:02:49;100547.91;;;3.06;81.58
75886;BME280;64561;44.018;10.144;2023-01-20T02:05:17;100543.09;;;2.94;82.42
75886;BME280;64561;44.018;10.144;2023-01-20T02:07:46;100541.72;;;2.83;83.58
75886;BME280;64561;44.018;10.144;2023-01-20T02:10:13;100525.22;;;2.73;84.04
75886;BME280;64561;44.018;10.144;2023-01-20T02:12:41;100532.03;;;2.74;84.39
75886;BME280;64561;44.018;10.144;2023-01-20T02:15:10;100529.41;;;2.73;83.60
75886;BME280;64561;44.018;10.144;2023-01-20T02:20:41;100525.31;;;2.75;84.03
75886;BME280;64561;44.018;10.144;2023-01-20T02:23:22;100521.06;;;2.74;83.77
75886;BME280;64561;44.018;10.144;2023-01-20T02:34:29;100510.03;;;2.90;82.24
75886;BME280;64561;44.018;10.144;2023-01-20T02:42:40;100493.81;;;3.03;81.95
75886;BME280;64561;44.018;10.144;2023-01-20T02:45:36;100495.03;;;2.93;82.04
75886;BME280;64561;44.018;10.144;2023-01-20T02:48:17;100484.47;;;2.84;82.74
75886;BME280;64561;44.018;10.144;2023-01-20T02:53:21;100484.72;;;3.06;82.58
75886;BME280;64561;44.018;10.144;2023-01-20T02:55:52;100474.41;;;3.02;81.59
75886;BME280;64561;44.018;10.144;2023-01-20T02:58:41;100477.75;;;2.84;81.39
75886;BME280;64561;44.018;10.144;2023-01-20T03:01:16;100483.53;;;2.82;81.96
75886;BME280;64561;44.018;10.144;2023-01-20T03:03:48;100466.34;;;2.74;81.71
75886;BME280;64561;44.018;10.144;2023-01-20T03:06:21;100456.56;;;2.64;83.07
75886;BME280;64561;44.018;10.144;2023-01-20T03:08:51;100457.63;;;2.51;81.71
75886;BME280;64561;44.018;10.144;2023-01-20T03:11:19;100444.44;;;2.57;82.48
75886;BME280;64561;44.018;10.144;2023-01-20T03:14:11;100450.19;;;2.71;82.58
75886;BME280;64561;44.018;10.144;2023-01-20T03:16:40;100439.06;;;2.85;81.74
75886;BME280;64561;44.018;10.144;2023-01-20T03:19:08;100437.72;;;2.92;80.68
75886;BME280;64561;44.018;10.144;2023-01-20T03:21:35;100435.31;;;2.77;80.94
75886;BME280;64561;44.018;10.144;2023-01-20T03:24:03;100423.59;;;2.61;81.77
75886;BME280;64561;44.018;10.144;2023-01-20T03:26:31;100424.28;;;2.59;82.19
75886;BME280;64561;44.018;10.144;2023-01-20T03:29:04;100415.16;;;2.61;81.73
75886;BME280;64561;44.018;10.144;2023-01-20T03:34:07;100428.09;;;2.85;80.93
75886;BME280;64561;44.018;10.144;2023-01-20T03:36:37;100419.38;;;2.78;80.42
75886;BME280;64561;44.018;10.144;2023-01-20T03:39:05;100420.66;;;2.88;80.78
75886;BME280;64561;44.018;10.144;2023-01-20T03:41:45;100420.47;;;3.01;80.08
75886;BME280;64561;44.018;10.144;2023-01-20T03:50:16;100413.13;;;2.54;80.53
75886;BME280;64561;44.018;10.144;2023-01-20T03:52:53;100421.06;;;2.61;81.08
75886;BME280;64561;44.018;10.144;2023-01-20T03:58:00;100424.13;;;2.72;80.16
75886;BME280;64561;44.018;10.144;2023-01-20T04:00:33;100423.16;;;2.70;80.22
75886;BME280;64561;44.018;10.144;2023-01-20T04:03:05;100417.75;;;2.62;79.18
75886;BME280;64561;44.018;10.144;2023-01-20T04:05:34;100421.91;;;2.44;80.10
75886;BME280;64561;44.018;10.144;2023-01-20T04:08:05;100407.81;;;2.15;81.30
75886;BME280;64561;44.018;10.144;2023-01-20T04:10:35;100414.28;;;1.93;83.75
75886;BME280;64561;44.018;10.144;2023-01-20T04:13:04;100420.41;;;1.98;83.19
75886;BME280;64561;44.018;10.144;2023-01-20T04:15:37;100404.44;;;1.81;84.42
75886;BME280;64561;44.018;10.144;2023-01-20T04:18:14;100418.78;;;1.82;84.97
75886;BME280;64561;44.018;10.144;2023-01-20T04:20:43;100408.47;;;1.78;84.87
75886;BME280;64561;44.018;10.144;2023-01-20T04:23:33;100410.88;;;1.76;85.61
75886;BME280;64561;44.018;10.144;2023-01-20T04:26:01;100402.94;;;1.85;85.63
75886;BME280;64561;44.018;10.144;2023-01-20T04:28:28;100403.81;;;2.02;84.19
75886;BME280;64561;44.018;10.144;2023-01-20T04:30:55;100411.38;;;1.86;84.54
75886;BME280;64561;44.018;10.144;2023-01-20T04:33:22;100407.03;;;1.83;85.70
75886;BME280;64561;44.018;10.144;2023-01-20T04:35:49;100409.31;;;1.95;85.49
75886;BME280;64561;44.018;10.144;2023-01-20T04:38:16;100417.66;;;2.10;83.50
75886;BME280;64561;44.018;10.144;2023-01-20T04:40:42;100415.75;;;2.22;83.60
75886;BME280;64561;44.018;10.144;2023-01-20T04:43:09;100421.09;;;2.28;82.55
75886;BME280;64561;44.018;10.144;2023-01-20T04:45:39;100420.81;;;2.39;82.31
75886;BME280;64561;44.018;10.144;2023-01-20T04:48:07;100420.16;;;2.43;82.34
75886;BME280;64561;44.018;10.144;2023-01-20T04:50:38;100433.94;;;2.49;81.49
75886;BME280;64561;44.018;10.144;2023-01-20T04:53:07;100433.47;;;2.57;81.88
75886;BME280;64561;44.018;10.144;2023-01-20T04:55:36;100448.78;;;2.60;80.97
75886;BME280;64561;44.018;10.144;2023-01-20T04:58:03;100443.59;;;2.40;79.57
75886;BME280;64561;44.018;10.144;2023-01-20T05:00:30;100437.53;;;2.37;80.02
75886;BME280;64561;44.018;10.144;2023-01-20T05:02:57;100446.19;;;2.25;80.25
75886;BME280;64561;44.018;10.144;2023-01-20T05:05:24;100448.34;;;2.18;81.46
75886;BME280;64561;44.018;10.144;2023-01-20T05:07:52;100447.78;;;2.07;81.79
75886;BME280;64561;44.018;10.144;2023-01-20T05:10:19;100457.78;;;2.22;82.16
75886;BME280;64561;44.018;10.144;2023-01-20T05:12:46;100459.94;;;2.31;81.04
75886;BME280;64561;44.018;10.144;2023-01-20T05:15:13;100463.88;;;1.93;80.22
75886;BME280;64561;44.018;10.144;2023-01-20T05:17:40;100464.97;;;1.81;82.53
75886;BME280;64561;44.018;10.144;2023-01-20T05:20:08;100469.63;;;1.90;82.62
75886;BME280;64561;44.018;10.144;2023-01-20T05:22:34;100473.00;;;2.07;81.86
75886;BME280;64561;44.018;10.144;2023-01-20T05:25:01;100477.25;;;1.92;79.79
75886;BME280;64561;44.018;10.144;2023-01-20T05:27:28;100483.00;;;1.89;80.96
75886;BME280;64561;44.018;10.144;2023-01-20T05:29:55;100482.63;;;1.98;81.61
75886;BME280;64561;44.018;10.144;2023-01-20T05:32:22;100484.66;;;1.72;81.38
75886;BME280;64561;44.018;10.144;2023-01-20T05:34:48;100488.03;;;1.73;80.61
75886;BME280;64561;44.018;10.144;2023-01-20T05:37:16;100494.81;;;1.43;83.02
75886;BME280;64561;44.018;10.144;2023-01-20T05:39:43;100493.00;;;1.25;85.41
75886;BME280;64561;44.018;10.144;2023-01-20T05:42:10;100496.72;;;1.32;86.43
75886;BME280;64561;44.018;10.144;2023-01-20T05:44:37;100504.38;;;1.48;86.52
75886;BME280;64561;44.018;10.144;2023-01-20T05:47:04;100500.13;;;1.78;84.86
75886;BME280;64561;44.018;10.144;2023-01-20T05:49:31;100498.78;;;1.85;83.37
75886;BME280;64561;44.018;10.144;2023-01-20T05:51:57;100498.78;;;1.85;82.76
75886;BME280;64561;44.018;10.144;2023-01-20T05:54:24;100500.75;;;1.91;82.71
75886;BME280;64561;44.018;10.144;2023-01-20T05:56:51;100505.66;;;2.04;82.21
75886;BME280;64561;44.018;10.144;2023-01-20T05:59:18;100517.03;;;2.12;81.83
75886;BME280;64561;44.018;10.144;2023-01-20T06:01:45;100510.63;;;2.19;82.10
75886;BME280;64561;44.018;10.144;2023-01-20T06:04:12;100519.25;;;2.39;81.19
75886;BME280;64561;44.018;10.144;2023-01-20T06:06:38;100518.16;;;2.17;80.00
75886;BME280;64561;44.018;10.144;2023-01-20T06:09:05;100528.63;;;2.09;79.44
75886;BME280;64561;44.018;10.144;2023-01-20T06:11:32;100527.31;;;1.84;81.31
75886;BME280;64561;44.018;10.144;2023-01-20T06:13:59;100525.00;;;1.72;80.71
75886;BME280;64561;44.018;10.144;2023-01-20T06:16:25;100530.63;;;1.68;81.66
75886;BME280;64561;44.018;10.144;2023-01-20T06:18:52;100521.78;;;1.75;81.31
75886;BME280;64561;44.018;10.144;2023-01-20T06:21:22;100524.03;;;1.70;80.49
75886;BME280;64561;44.018;10.144;2023-01-20T06:23:51;100525.88;;;1.73;81.93
75886;BME280;64561;44.018;10.144;2023-01-20T06:26:19;100531.03;;;1.59;81.54
75886;BME280;64561;44.018;10.144;2023-01-20T06:28:45;100532.44;;;1.40;82.89
75886;BME280;64561;44.018;10.144;2023-01-20T06:31:14;100529.13;;;1.41;83.36
75886;BME280;64561;44.018;10.144;2023-01-20T06:33:42;100524.88;;;1.40;82.73
75886;BME280;64561;44.018;10.144;2023-01-20T06:36:10;100531.72;;;1.57;82.77
75886;BME280;64561;44.018;10.144;2023-01-20T06:38:39;100527.88;;;1.64;82.81
75886;BME280;64561;44.018;10.144;2023-01-20T06:41:07;100535.00;;;1.56;82.04
75886;BME280;64561;44.018;10.144;2023-01-20T06:43:36;100537.03;;;1.47;82.89
75886;BME280;64561;44.018;10.144;2023-01-20T06:46:07;100542.09;;;1.32;83.39
75886;BME280;64561;44.018;10.144;2023-01-20T06:48:35;100543.91;;;1.20;84.75
75886;BME280;64561;44.018;10.144;2023-01-20T06:51:04;100539.31;;;1.27;85.08
75886;BME280;64561;44.018;10.144;2023-01-20T06:53:32;100541.03;;;1.43;84.90
75886;BME280;64561;44.018;10.144;2023-01-20T06:56:00;100539.13;;;1.54;83.56
75886;BME280;64561;44.018;10.144;2023-01-20T06:58:30;100537.09;;;1.63;82.32
75886;BME280;64561;44.018;10.144;2023-01-20T07:01:03;100537.28;;;1.66;82.03
75886;BME280;64561;44.018;10.144;2023-01-20T07:03:30;100541.53;;;1.67;82.17
75886;BME280;64561;44.018;10.144;2023-01-20T07:05:59;100544.59;;;1.32;83.70
75886;BME280;64561;44.018;10.144;2023-01-20T07:08:27;100546.44;;;1.34;83.52
75886;BME280;64561;44.018;10.144;2023-01-20T07:10:54;100550.50;;;1.47;84.34
75886;BME280;64561;44.018;10.144;2023-01-20T07:13:21;100547.41;;;1.36;83.27
75886;BME280;64561;44.018;10.144;2023-01-20T07:15:48;100547.03;;;1.45;82.63
75886;BME280;64561;44.018;10.144;2023-01-20T07:18:15;100555.19;;;1.26;83.16
75886;BME280;64561;44.018;10.144;2023-01-20T07:20:41;100560.06;;;1.23;84.55
75886;BME280;64561;44.018;10.144;2023-01-20T07:23:09;100559.72;;;1.32;84.89
75886;BME280;64561;44.018;10.144;2023-01-20T07:25:36;100554.69;;;1.47;85.35
75886;BME280;64561;44.018;10.144;2023-01-20T07:28:04;100559.81;;;1.63;84.03
75886;BME280;64561;44.018;10.144;2023-01-20T07:30:31;100549.94;;;1.68;83.02
75886;BME280;64561;44.018;10.144;2023-01-20T07:32:57;100559.84;;;1.79;83.42
75886;BME280;64561;44.018;10.144;2023-01-20T07:35:24;100560.88;;;1.83;84.08
75886;BME280;64561;44.018;10.144;2023-01-20T07:37:51;100560.44;;;1.90;83.76
75886;BME280;64561;44.018;10.144;2023-01-20T07:40:18;100564.78;;;1.93;84.25
75886;BME280;64561;44.018;10.144;2023-01-20T07:42:45;100569.91;;;1.94;85.10
75886;BME280;64561;44.018;10.144;2023-01-20T07:45:11;100572.84;;;2.02;84.37
75886;BME280;64561;44.018;10.144;2023-01-20T07:47:39;100560.72;;;2.11;84.88
75886;BME280;64561;44.018;10.144;2023-01-20T07:50:06;100575.88;;;2.27;84.76
75886;BME280;64561;44.018;10.144;2023-01-20T07:52:33;100582.22;;;2.36;84.44
75886;BME280;64561;44.018;10.144;2023-01-20T07:55:01;100586.50;;;2.53;84.35
75886;BME280;64561;44.018;10.144;2023-01-20T07:57:28;100580.00;;;2.74;84.19
75886;BME280;64561;44.018;10.144;2023-01-20T07:59:59;100585.44;;;2.82;83.02
75886;BME280;64561;44.018;10.144;2023-01-20T08:02:25;100588.75;;;2.81;81.90
75886;BME280;64561;44.018;10.144;2023-01-20T08:04:52;100593.31;;;2.88;82.84
75886;BME280;64561;44.018;10.144;2023-01-20T08:07:19;100592.00;;;2.95;82.37
75886;BME280;64561;44.018;10.144;2023-01-20T08:09:46;100596.09;;;2.93;81.80
75886;BME280;64561;44.018;10.144;2023-01-20T08:12:14;100591.25;;;2.97;81.91
75886;BME280;64561;44.018;10.144;2023-01-20T08:14:40;100599.41;;;3.08;82.54
75886;BME280;64561;44.018;10.144;2023-01-20T08:17:07;100599.19;;;3.21;83.26
75886;BME280;64561;44.018;10.144;2023-01-20T08:19:34;100611.59;;;3.33;82.56
75886;BME280;64561;44.018;10.144;2023-01-20T08:22:01;100610.22;;;3.40;81.77
75886;BME280;64561;44.018;10.144;2023-01-20T08:24:27;100611.47;;;3.48;81.52
75886;BME280;64561;44.018;10.144;2023-01-20T08:26:54;100622.03;;;3.57;81.27
75886;BME280;64561;44.018;10.144;2023-01-20T08:29:22;100616.34;;;3.61;80.64
75886;BME280;64561;44.018;10.144;2023-01-20T08:31:48;100623.53;;;3.70;79.75
75886;BME280;64561;44.018;10.144;2023-01-20T08:34:16;100622.19;;;3.78;79.53
75886;BME280;64561;44.018;10.144;2023-01-20T08:36:44;100616.50;;;4.00;79.24
75886;BME280;64561;44.018;10.144;2023-01-20T08:39:14;100619.38;;;4.08;79.65
75886;BME280;64561;44.018;10.144;2023-01-20T08:41:42;100623.00;;;4.13;78.54
75886;BME280;64561;44.018;10.144;2023-01-20T08:44:10;100617.63;;;4.25;77.08
75886;BME280;64561;44.018;10.144;2023-01-20T08:46:37;100625.06;;;4.40;77.02
75886;BME280;64561;44.018;10.144;2023-01-20T08:49:13;100622.09;;;4.48;76.33
75886;BME280;64561;44.018;10.144;2023-01-20T08:51:41;100622.63;;;4.61;75.87
75886;BME280;64561;44.018;10.144;2023-01-20T08:54:08;100626.56;;;4.73;75.36
75886;BME280;64561;44.018;10.144;2023-01-20T08:56:35;100631.31;;;4.85;73.78
75886;BME280;64561;44.018;10.144;2023-01-20T08:59:03;100636.41;;;4.87;73.28
75886;BME280;64561;44.018;10.144;2023-01-20T09:01:31;100640.63;;;4.86;73.25
75886;BME280;64561;44.018;10.144;2023-01-20T09:04:01;100641.63;;;4.90;73.20
75886;BME280;64561;44.018;10.144;2023-01-20T09:06:46;100640.50;;;4.83;67.08
75886;BME280;64561;44.018;10.144;2023-01-20T09:09:15;100635.38;;;4.81;68.26
75886;BME280;64561;44.018;10.144;2023-01-20T09:11:42;100649.09;;;4.87;69.01
75886;BME280;64561;44.018;10.144;2023-01-20T09:14:21;100641.22;;;4.80;66.17
75886;BME280;64561;44.018;10.144;2023-01-20T09:16:49;100650.09;;;4.90;66.77
75886;BME280;64561;44.018;10.144;2023-01-20T09:19:16;100649.69;;;5.20;64.61
75886;BME280;64561;44.018;10.144;2023-01-20T09:21:43;100649.28;;;5.30;63.88
75886;BME280;64561;44.018;10.144;2023-01-20T09:24:10;100649.94;;;5.26;63.88
75886;BME280;64561;44.018;10.144;2023-01-20T09:26:37;100655.53;;;5.38;67.87
75886;BME280;64561;44.018;10.144;2023-01-20T09:29:09;100664.91;;;5.60;68.19
75886;BME280;64561;44.018;10.144;2023-01-20T09:31:47;100665.72;;;5.80;66.97
75886;BME280;64561;44.018;10.144;2023-01-20T09:34:16;100662.41;;;6.02;69.14
75886;BME280;64561;44.018;10.144;2023-01-20T09:36:51;100652.72;;;6.14;66.92
75886;BME280;64561;44.018;10.144;2023-01-20T09:39:19;100660.06;;;6.29;66.32
75886;BME280;64561;44.018;10.144;2023-01-20T09:42:23;100661.09;;;6.34;65.78
75886;BME280;64561;44.018;10.144;2023-01-20T09:45:37;100664.53;;;6.35;66.57
75886;BME280;64561;44.018;10.144;2023-01-20T09:51:02;100669.19;;;6.47;68.86
75886;BME280;64561;44.018;10.144;2023-01-20T09:56:24;100670.34;;;6.55;67.65
75886;BME280;64561;44.018;10.144;2023-01-20T09:59:04;100671.78;;;6.71;69.26
75886;BME280;64561;44.018;10.144;2023-01-20T10:01:44;100658.19;;;6.70;70.54
75886;BME280;64561;44.018;10.144;2023-01-20T10:04:40;100662.66;;;6.76;71.07
75886;BME280;64561;44.018;10.144;2023-01-20T10:07:15;100671.25;;;6.79;71.91
75886;BME280;64561;44.018;10.144;2023-01-20T10:09:59;100667.19;;;6.84;71.93
75886;BME280;64561;44.018;10.144;2023-01-20T10:12:45;100671.81;;;6.95;72.23
75886;BME280;64561;44.018;10.144;2023-01-20T10:15:24;100672.31;;;7.08;70.65
75886;BME280;64561;44.018;10.144;2023-01-20T10:18:23;100673.28;;;7.12;71.12
75886;BME280;64561;44.018;10.144;2023-01-20T10:28:59;100668.13;;;7.35;70.92
75886;BME280;64561;44.018;10.144;2023-01-20T10:31:30;100663.28;;;7.42;70.43
75886;BME280;64561;44.018;10.144;2023-01-20T10:34:06;100669.66;;;7.55;69.24
75886;BME280;64561;44.018;10.144;2023-01-20T10:36:34;100679.03;;;7.56;68.50
75886;BME280;64561;44.018;10.144;2023-01-20T10:42:14;100675.06;;;7.64;68.09
75886;BME280;64561;44.018;10.144;2023-01-20T10:44:41;100671.63;;;7.64;68.25
75886;BME280;64561;44.018;10.144;2023-01-20T10:50:10;100674.34;;;7.68;67.94
75886;BME280;64561;44.018;10.144;2023-01-20T10:52:57;100669.25;;;7.68;68.19
75886;BME280;64561;44.018;10.144;2023-01-20T10:56:02;100665.84;;;7.68;68.57
75886;BME280;64561;44.018;10.144;2023-01-20T10:58:26;100661.06;;;7.77;68.53
75886;BME280;64561;44.018;10.144;2023-01-20T11:00:54;100654.38;;;7.81;67.37
75886;BME280;64561;44.018;10.144;2023-01-20T11:03:22;100651.91;;;7.84;67.82
75886;BME280;64561;44.018;10.144;2023-01-20T11:05:50;100648.44;;;7.82;67.53
75886;BME280;64561;44.018;10.144;2023-01-20T11:08:27;100653.06;;;7.93;68.31
75886;BME280;64561;44.018;10.144;2023-01-20T11:10:57;100645.09;;;8.10;65.12
75886;BME280;64561;44.018;10.144;2023-01-20T11:13:25;100645.03;;;8.08;65.11
75886;BME280;64561;44.018;10.144;2023-01-20T11:16:05;100639.28;;;8.14;65.40
75886;BME280;64561;44.018;10.144;2023-01-20T11:18:36;100634.34;;;8.18;64.33
75886;BME280;64561;44.018;10.144;2023-01-20T11:21:11;100633.31;;;8.13;64.88
75886;BME280;64561;44.018;10.144;2023-01-20T11:23:52;100631.47;;;8.09;65.22
75886;BME280;64561;44.018;10.144;2023-01-20T11:26:36;100620.03;;;7.95;64.65
75886;BME280;64561;44.018;10.144;2023-01-20T11:31:43;100610.91;;;8.03;64.76
75886;BME280;64561;44.018;10.144;2023-01-20T11:34:23;100610.13;;;8.06;60.24
75886;BME280;64561;44.018;10.144;2023-01-20T11:37:14;100599.16;;;7.79;62.16
75886;BME280;64561;44.018;10.144;2023-01-20T11:42:23;100581.56;;;7.87;62.79
75886;BME280;64561;44.018;10.144;2023-01-20T11:44:57;100583.09;;;7.82;61.66
75886;BME280;64561;44.018;10.144;2023-01-20T11:47:44;100582.19;;;7.80;63.90
75886;BME280;64561;44.018;10.144;2023-01-20T11:50:44;100577.38;;;7.89;63.17
75886;BME280;64561;44.018;10.144;2023-01-20T11:53:16;100574.69;;;7.85;61.59
75886;BME280;64561;44.018;10.144;2023-01-20T11:55:47;100566.69;;;8.01;63.51
75886;BME280;64561;44.018;10.144;2023-01-20T11:58:18;100562.81;;;8.14;62.18
75886;BME280;64561;44.018;10.144;2023-01-20T12:00:46;100554.16;;;8.07;62.68
75886;BME280;64561;44.018;10.144;2023-01-20T12:03:32;100553.97;;;8.01;61.24
75886;BME280;64561;44.018;10.144;2023-01-20T12:08:52;100543.94;;;8.07;60.98
75886;BME280;64561;44.018;10.144;2023-01-20T12:14:24;100536.00;;;8.27;63.36
75886;BME280;64561;44.018;10.144;2023-01-20T12:22:26;100535.41;;;8.35;63.46
75886;BME280;64561;44.018;10.144;2023-01-20T12:27:46;100535.75;;;8.46;64.04
75886;BME280;64561;44.018;10.144;2023-01-20T12:32:53;100535.69;;;8.44;63.93
75886;BME280;64561;44.018;10.144;2023-01-20T12:35:22;100529.13;;;8.53;63.69
75886;BME280;64561;44.018;10.144;2023-01-20T12:37:55;100536.97;;;8.60;63.30
75886;BME280;64561;44.018;10.144;2023-01-20T12:40:37;100526.16;;;8.69;64.46
75886;BME280;64561;44.018;10.144;2023-01-20T12:54:31;100520.44;;;8.78;63.10
75886;BME280;64561;44.018;10.144;2023-01-20T13:14:18;100516.09;;;8.74;62.21
75886;BME280;64561;44.018;10.144;2023-01-20T13:19:36;100507.59;;;8.75;63.95
75886;BME280;64561;44.018;10.144;2023-01-20T13:22:10;100507.03;;;8.85;63.71
75886;BME280;64561;44.018;10.144;2023-01-20T13:24:42;100505.34;;;8.85;62.26
75886;BME280;64561;44.018;10.144;2023-01-20T13:27:10;100502.00;;;8.88;60.44
75886;BME280;64561;44.018;10.144;2023-01-20T13:34:55;100505.50;;;8.60;62.31
75886;BME280;64561;44.018;10.144;2023-01-20T13:37:32;100500.69;;;8.70;59.54
75886;BME280;64561;44.018;10.144;2023-01-20T13:40:00;100490.56;;;8.74;60.92
75886;BME280;64561;44.018;10.144;2023-01-20T13:58:32;100487.88;;;8.37;55.50
75886;BME280;64561;44.018;10.144;2023-01-20T14:01:04;100486.97;;;8.35;53.99
75886;BME280;64561;44.018;10.144;2023-01-20T14:03:36;100483.16;;;8.50;54.53
75886;BME280;64561;44.018;10.144;2023-01-20T14:06:05;100492.31;;;8.43;56.18
75886;BME280;64561;44.018;10.144;2023-01-20T14:11:11;100489.72;;;8.41;46.56
75886;BME280;64561;44.018;10.144;2023-01-20T14:13:40;100480.50;;;8.46;46.12
75886;BME280;64561;44.018;10.144;2023-01-20T14:16:40;100481.84;;;8.65;45.59
75886;BME280;64561;44.018;10.144;2023-01-20T14:19:28;100488.56;;;8.62;43.29
75886;BME280;64561;44.018;10.144;2023-01-20T14:22:22;100484.94;;;8.54;43.32
75886;BME280;64561;44.018;10.144;2023-01-20T14:24:54;100484.00;;;8.50;47.15
75886;BME280;64561;44.018;10.144;2023-01-20T14:27:28;100486.59;;;8.52;44.17
75886;BME280;64561;44.018;10.144;2023-01-20T14:30:22;100498.44;;;8.50;49.94
75886;BME280;64561;44.018;10.144;2023-01-20T14:32:50;100500.06;;;8.47;51.95
75886;BME280;64561;44.018;10.144;2023-01-20T14:35:26;100499.34;;;8.52;45.43
75886;BME280;64561;44.018;10.144;2023-01-20T14:37:54;100494.19;;;8.49;43.95
75886;BME280;64561;44.018;10.144;2023-01-20T14:40:24;100504.28;;;8.45;42.86
75886;BME280;64561;44.018;10.144;2023-01-20T14:45:25;100494.63;;;8.35;42.19
75886;BME280;64561;44.018;10.144;2023-01-20T14:47:54;100499.84;;;8.38;41.53
75886;BME280;64561;44.018;10.144;2023-01-20T14:50:22;100498.84;;;8.35;42.78
75886;BME280;64561;44.018;10.144;2023-01-20T14:52:49;100498.59;;;8.25;43.07
75886;BME280;64561;44.018;10.144;2023-01-20T14:56:04;100498.53;;;8.24;41.16
75886;BME280;64561;44.018;10.144;2023-01-20T14:58:33;100497.66;;;8.22;42.12
75886;BME280;64561;44.018;10.144;2023-01-20T15:01:03;100503.72;;;8.27;42.75
75886;BME280;64561;44.018;10.144;2023-01-20T15:03:31;100497.66;;;8.22;43.19
75886;BME280;64561;44.018;10.144;2023-01-20T15:11:10;100530.28;;;8.64;50.10
75886;BME280;64561;44.018;10.144;2023-01-20T15:16:38;100538.19;;;8.75;47.44
75886;BME280;64561;44.018;10.144;2023-01-20T15:21:48;100547.44;;;8.69;47.79
75886;BME280;64561;44.018;10.144;2023-01-20T15:26:44;100546.91;;;8.51;49.36
75886;BME280;64561;44.018;10.144;2023-01-20T15:29:31;100551.47;;;8.33;48.62
75886;BME280;64561;44.018;10.144;2023-01-20T15:32:00;100565.34;;;8.12;46.61
75886;BME280;64561;44.018;10.144;2023-01-20T15:34:27;100568.38;;;8.00;46.22
75886;BME280;64561;44.018;10.144;2023-01-20T15:36:55;100569.00;;;7.93;45.84
75886;BME280;64561;44.018;10.144;2023-01-20T15:39:24;100578.16;;;7.87;46.47